sensor_id;sensor_type;location;lat;lon;timestamp;pressure;altitude;pressure_sealevel;temperature
18161;BMP280;9205;52.032;4.314;2024-02-21T00:02:24;102080.38;;;11.10
18161;BMP280;9205;52.032;4.314;2024-02-21T00:04:51;102096.47;;;11.03
18161;BMP280;9205;52.032;4.314;2024-02-21T00:07:19;102069.34;;;11.05
18161;BMP280;9205;52.032;4.314;2024-02-21T00:09:46;102071.88;;;11.09
18161;BMP280;9205;52.032;4.314;2024-02-21T00:12:13;102063.41;;;11.09
18161;BMP280;9205;52.032;4.314;2024-02-21T00:14:40;102075.31;;;11.05
18161;BMP280;9205;52.032;4.314;2024-02-21T00:17:07;102065.13;;;11.04
18161;BMP280;9205;52.032;4.314;2024-02-21T00:19:36;102061.72;;;11.06
18161;BMP280;9205;52.032;4.314;2024-02-21T00:22:04;102083.72;;;11.15
18161;BMP280;9205;52.032;4.314;2024-02-21T00:24:31;102082.84;;;11.19
18161;BMP280;9205;52.032;4.314;2024-02-21T00:26:58;102088.00;;;11.10
18161;BMP280;9205;52.032;4.314;2024-02-21T00:29:25;102071.06;;;11.01
18161;BMP280;9205;52.032;4.314;2024-02-21T00:31:53;102083.72;;;11.12
18161;BMP280;9205;52.032;4.314;2024-02-21T00:34:20;102075.25;;;11.16
18161;BMP280;9205;52.032;4.314;2024-02-21T00:36:49;102073.59;;;11.06
18161;BMP280;9205;52.032;4.314;2024-02-21T00:39:16;102079.56;;;10.99
18161;BMP280;9205;52.032;4.314;2024-02-21T00:41:43;102073.59;;;11.03
18161;BMP280;9205;52.032;4.314;2024-02-21T00:44:10;102071.91;;;11.08
18161;BMP280;9205;52.032;4.314;2024-02-21T00:46:38;102075.31;;;10.98
18161;BMP280;9205;52.032;4.314;2024-02-21T00:49:05;102075.31;;;10.95
18161;BMP280;9205;52.032;4.314;2024-02-21T00:51:33;102060.09;;;10.89
18161;BMP280;9205;52.032;4.314;2024-02-21T00:54:02;102049.06;;;10.93
18161;BMP280;9205;52.032;4.314;2024-02-21T00:56:29;102049.06;;;10.97
18161;BMP280;9205;52.032;4.314;2024-02-21T00:58:56;102043.13;;;10.92
18161;BMP280;9205;52.032;4.314;2024-02-21T01:01:25;102043.16;;;10.87
18161;BMP280;9205;52.032;4.314;2024-02-21T01:03:52;102046.53;;;10.87
18161;BMP280;9205;52.032;4.314;2024-02-21T01:06:20;102039.78;;;10.80
18161;BMP280;9205;52.032;4.314;2024-02-21T01:08:47;102027.88;;;10.95
18161;BMP280;9205;52.032;4.314;2024-02-21T01:11:16;102044.00;;;10.93
18161;BMP280;9205;52.032;4.314;2024-02-21T01:13:44;102034.63;;;10.98
18161;BMP280;9205;52.032;4.314;2024-02-21T01:16:11;102032.94;;;10.97
18161;BMP280;9205;52.032;4.314;2024-02-21T01:18:38;102031.25;;;10.99
18161;BMP280;9205;52.032;4.314;2024-02-21T01:21:06;102030.41;;;10.95
18161;BMP280;9205;52.032;4.314;2024-02-21T01:23:34;102032.09;;;10.95
18161;BMP280;9205;52.032;4.314;2024-02-21T01:26:01;102027.88;;;10.88
18161;BMP280;9205;52.032;4.314;2024-02-21T01:28:30;102021.94;;;10.96
18161;BMP280;9205;52.032;4.314;2024-02-21T01:30:57;102016.84;;;10.96
18161;BMP280;9205;52.032;4.314;2024-02-21T01:33:24;102016.84;;;10.93
18161;BMP280;9205;52.032;4.314;2024-02-21T01:35:52;102011.81;;;10.88
18161;BMP280;9205;52.032;4.314;2024-02-21T01:38:19;102013.44;;;10.99
18161;BMP280;9205;52.032;4.314;2024-02-21T01:40:46;102010.91;;;11.02
18161;BMP280;9205;52.032;4.314;2024-02-21T01:43:19;101996.50;;;10.98
18161;BMP280;9205;52.032;4.314;2024-02-21T01:45:50;102012.63;;;10.91
18161;BMP280;9205;52.032;4.314;2024-02-21T01:48:18;102002.47;;;10.94
18161;BMP280;9205;52.032;4.314;2024-02-21T01:50:46;102000.81;;;10.81
18161;BMP280;9205;52.032;4.314;2024-02-21T01:53:16;101998.25;;;10.86
18161;BMP280;9205;52.032;4.314;2024-02-21T01:55:45;102001.63;;;10.91
18161;BMP280;9205;52.032;4.314;2024-02-21T01:58:14;101991.41;;;10.93
18161;BMP280;9205;52.032;4.314;2024-02-21T02:00:43;101982.13;;;10.94
18161;BMP280;9205;52.032;4.314;2024-02-21T02:03:13;101977.88;;;10.97
18161;BMP280;9205;52.032;4.314;2024-02-21T02:05:44;101977.81;;;11.05
18161;BMP280;9205;52.032;4.314;2024-02-21T02:08:12;101977.03;;;10.94
18161;BMP280;9205;52.032;4.314;2024-02-21T02:10:40;101969.34;;;11.01
18161;BMP280;9205;52.032;4.314;2024-02-21T02:13:08;101965.97;;;10.99
18161;BMP280;9205;52.032;4.314;2024-02-21T02:15:39;101976.09;;;11.08
18161;BMP280;9205;52.032;4.314;2024-02-21T02:18:07;101968.50;;;11.05
18161;BMP280;9205;52.032;4.314;2024-02-21T02:20:36;101976.94;;;11.06
18161;BMP280;9205;52.032;4.314;2024-02-21T02:23:09;101973.56;;;11.10
18161;BMP280;9205;52.032;4.314;2024-02-21T02:25:39;101965.00;;;11.18
18161;BMP280;9205;52.032;4.314;2024-02-21T02:28:07;101975.22;;;11.17
18161;BMP280;9205;52.032;4.314;2024-02-21T02:30:35;101975.28;;;10.99
18161;BMP280;9205;52.032;4.314;2024-02-21T02:33:03;101970.25;;;10.93
18161;BMP280;9205;52.032;4.314;2024-02-21T02:35:31;101961.78;;;10.91
18161;BMP280;9205;52.032;4.314;2024-02-21T02:37:58;101958.38;;;10.89
18161;BMP280;9205;52.032;4.314;2024-02-21T02:40:25;101955.81;;;10.93
18161;BMP280;9205;52.032;4.314;2024-02-21T02:42:54;101943.97;;;10.91
18161;BMP280;9205;52.032;4.314;2024-02-21T02:45:22;101949.06;;;10.91
18161;BMP280;9205;52.032;4.314;2024-02-21T02:47:52;101931.22;;;11.00
18161;BMP280;9205;52.032;4.314;2024-02-21T02:50:20;101938.06;;;10.91
18161;BMP280;9205;52.032;4.314;2024-02-21T02:52:47;101927.06;;;10.89
18161;BMP280;9205;52.032;4.314;2024-02-21T02:55:15;101917.75;;;10.83
18161;BMP280;9205;52.032;4.314;2024-02-21T02:57:42;101913.47;;;10.88
18161;BMP280;9205;52.032;4.314;2024-02-21T03:00:13;101913.44;;;10.95
18161;BMP280;9205;52.032;4.314;2024-02-21T03:02:43;101913.44;;;10.97
18161;BMP280;9205;52.032;4.314;2024-02-21T03:05:14;101911.69;;;11.03
18161;BMP280;9205;52.032;4.314;2024-02-21T03:07:42;101900.63;;;11.10
18161;BMP280;9205;52.032;4.314;2024-02-21T03:10:09;101907.47;;;11.05
18161;BMP280;9205;52.032;4.314;2024-02-21T03:12:37;101894.75;;;11.02
18161;BMP280;9205;52.032;4.314;2024-02-21T03:15:05;101885.38;;;11.07
18161;BMP280;9205;52.032;4.314;2024-02-21T03:17:34;101879.44;;;11.11
18161;BMP280;9205;52.032;4.314;2024-02-21T03:20:02;101879.47;;;11.04
18161;BMP280;9205;52.032;4.314;2024-02-21T03:22:31;101880.44;;;10.84
18161;BMP280;9205;52.032;4.314;2024-02-21T03:24:58;101887.16;;;10.95
18161;BMP280;9205;52.032;4.314;2024-02-21T03:27:25;101884.59;;;10.98
18161;BMP280;9205;52.032;4.314;2024-02-21T03:29:52;101876.13;;;11.02
18161;BMP280;9205;52.032;4.314;2024-02-21T03:32:19;101868.44;;;11.05
18161;BMP280;9205;52.032;4.314;2024-02-21T03:34:48;101862.50;;;11.09
18161;BMP280;9205;52.032;4.314;2024-02-21T03:37:15;101855.66;;;11.14
18161;BMP280;9205;52.032;4.314;2024-02-21T03:39:42;101858.16;;;11.20
18161;BMP280;9205;52.032;4.314;2024-02-21T03:42:10;101864.91;;;11.24
18161;BMP280;9205;52.032;4.314;2024-02-21T03:44:37;101858.13;;;11.23
18161;BMP280;9205;52.032;4.314;2024-02-21T03:47:04;101856.44;;;11.22
18161;BMP280;9205;52.032;4.314;2024-02-21T03:49:32;101853.09;;;11.17
18161;BMP280;9205;52.032;4.314;2024-02-21T03:52:00;101847.22;;;11.13
18161;BMP280;9205;52.032;4.314;2024-02-21T03:54:27;101835.25;;;11.23
18161;BMP280;9205;52.032;4.314;2024-02-21T03:56:54;101839.47;;;11.24
18161;BMP280;9205;52.032;4.314;2024-02-21T03:59:22;101832.88;;;11.02
18161;BMP280;9205;52.032;4.314;2024-02-21T04:01:52;101842.13;;;11.10
18161;BMP280;9205;52.032;4.314;2024-02-21T04:04:19;101854.81;;;11.12
18161;BMP280;9205;52.032;4.314;2024-02-21T04:06:47;101854.81;;;11.12
18161;BMP280;9205;52.032;4.314;2024-02-21T04:09:16;101843.78;;;11.16
18161;BMP280;9205;52.032;4.314;2024-02-21T04:11:43;101846.25;;;11.25
18161;BMP280;9205;52.032;4.314;2024-02-21T04:14:10;101852.25;;;11.19
18161;BMP280;9205;52.032;4.314;2024-02-21T04:16:38;101846.34;;;11.16
18161;BMP280;9205;52.032;4.314;2024-02-21T04:19:05;101847.97;;;11.23
18161;BMP280;9205;52.032;4.314;2024-02-21T04:21:33;101845.44;;;11.20
18161;BMP280;9205;52.032;4.314;2024-02-21T04:24:00;101831.00;;;11.25
18161;BMP280;9205;52.032;4.314;2024-02-21T04:26:29;101828.47;;;11.25
18161;BMP280;9205;52.032;4.314;2024-02-21T04:28:56;101827.56;;;11.26
18161;BMP280;9205;52.032;4.314;2024-02-21T04:31:23;101823.34;;;11.23
18161;BMP280;9205;52.032;4.314;2024-02-21T04:33:50;101819.09;;;11.27
18161;BMP280;9205;52.032;4.314;2024-02-21T04:36:17;101812.31;;;11.26
18161;BMP280;9205;52.032;4.314;2024-02-21T04:38:45;101816.50;;;11.33
18161;BMP280;9205;52.032;4.314;2024-02-21T04:41:12;101804.63;;;11.33
18161;BMP280;9205;52.032;4.314;2024-02-21T04:43:41;101803.81;;;11.30
18161;BMP280;9205;52.032;4.314;2024-02-21T04:46:08;101810.59;;;11.31
18161;BMP280;9205;52.032;4.314;2024-02-21T04:48:35;101808.06;;;11.28
18161;BMP280;9205;52.032;4.314;2024-02-21T04:51:04;101811.41;;;11.31
18161;BMP280;9205;52.032;4.314;2024-02-21T04:53:31;101797.00;;;11.32
18161;BMP280;9205;52.032;4.314;2024-02-21T04:55:59;101797.03;;;11.26
18161;BMP280;9205;52.032;4.314;2024-02-21T04:58:26;101776.69;;;11.29
18161;BMP280;9205;52.032;4.314;2024-02-21T05:00:54;101776.66;;;11.32
18161;BMP280;9205;52.032;4.314;2024-02-21T05:03:22;101779.16;;;11.35
18161;BMP280;9205;52.032;4.314;2024-02-21T05:05:49;101768.97;;;11.35
18161;BMP280;9205;52.032;4.314;2024-02-21T05:08:16;101768.16;;;11.31
18161;BMP280;9205;52.032;4.314;2024-02-21T05:10:44;101763.09;;;11.30
18161;BMP280;9205;52.032;4.314;2024-02-21T05:13:11;101775.03;;;11.25
18161;BMP280;9205;52.032;4.314;2024-02-21T05:15:38;101770.91;;;11.13
18161;BMP280;9205;52.032;4.314;2024-02-21T05:18:07;101754.03;;;11.03
18161;BMP280;9205;52.032;4.314;2024-02-21T05:20:34;101754.84;;;11.07
18161;BMP280;9205;52.032;4.314;2024-02-21T05:23:01;101748.91;;;11.08
18161;BMP280;9205;52.032;4.314;2024-02-21T05:25:28;101746.38;;;11.05
18161;BMP280;9205;52.032;4.314;2024-02-21T05:27:58;101736.25;;;11.02
18161;BMP280;9205;52.032;4.314;2024-02-21T05:30:28;101725.22;;;11.01
18161;BMP280;9205;52.032;4.314;2024-02-21T05:32:55;101726.94;;;10.99
18161;BMP280;9205;52.032;4.314;2024-02-21T05:35:26;101732.84;;;11.03
18161;BMP280;9205;52.032;4.314;2024-02-21T05:37:54;101724.38;;;10.99
18161;BMP280;9205;52.032;4.314;2024-02-21T05:40:21;101715.91;;;11.02
18161;BMP280;9205;52.032;4.314;2024-02-21T05:42:48;101708.34;;;10.94
18161;BMP280;9205;52.032;4.314;2024-02-21T05:45:17;101705.75;;;10.99
18161;BMP280;9205;52.032;4.314;2024-02-21T05:47:44;101698.91;;;11.04
18161;BMP280;9205;52.032;4.314;2024-02-21T05:50:11;101703.19;;;11.00
18161;BMP280;9205;52.032;4.314;2024-02-21T05:52:40;101699.88;;;10.92
18161;BMP280;9205;52.032;4.314;2024-02-21T05:55:07;101705.81;;;10.94
18161;BMP280;9205;52.032;4.314;2024-02-21T05:57:35;101689.72;;;10.92
18161;BMP280;9205;52.032;4.314;2024-02-21T06:00:05;101692.25;;;10.92
18161;BMP280;9205;52.032;4.314;2024-02-21T06:02:38;101683.88;;;10.83
18161;BMP280;9205;52.032;4.314;2024-02-21T06:05:06;101682.97;;;10.87
18161;BMP280;9205;52.032;4.314;2024-02-21T06:07:35;101689.72;;;10.91
18161;BMP280;9205;52.032;4.314;2024-02-21T06:10:04;101688.09;;;10.86
18161;BMP280;9205;52.032;4.314;2024-02-21T06:12:32;101693.97;;;10.92
18161;BMP280;9205;52.032;4.314;2024-02-21T06:14:59;101688.84;;;10.95
18161;BMP280;9205;52.032;4.314;2024-02-21T06:17:26;101704.94;;;10.97
18161;BMP280;9205;52.032;4.314;2024-02-21T06:19:53;101699.00;;;10.95
18161;BMP280;9205;52.032;4.314;2024-02-21T06:22:21;101706.66;;;10.93
18161;BMP280;9205;52.032;4.314;2024-02-21T06:24:48;101710.13;;;10.85
18161;BMP280;9205;52.032;4.314;2024-02-21T06:27:16;101705.06;;;10.82
18161;BMP280;9205;52.032;4.314;2024-02-21T06:29:44;101699.19;;;10.77
18161;BMP280;9205;52.032;4.314;2024-02-21T06:32:11;101694.13;;;10.74
18161;BMP280;9205;52.032;4.314;2024-02-21T06:34:38;101687.28;;;10.82
18161;BMP280;9205;52.032;4.314;2024-02-21T06:37:05;101686.38;;;10.88
18161;BMP280;9205;52.032;4.314;2024-02-21T06:39:32;101693.22;;;10.81
18161;BMP280;9205;52.032;4.314;2024-02-21T06:41:59;101666.09;;;10.80
18161;BMP280;9205;52.032;4.314;2024-02-21T06:44:28;101666.09;;;10.80
18161;BMP280;9205;52.032;4.314;2024-02-21T06:46:55;101661.94;;;10.73
18161;BMP280;9205;52.032;4.314;2024-02-21T06:49:22;101670.34;;;10.81
18161;BMP280;9205;52.032;4.314;2024-02-21T06:51:49;101667.00;;;10.79
18161;BMP280;9205;52.032;4.314;2024-02-21T06:54:16;101664.41;;;10.81
18161;BMP280;9205;52.032;4.314;2024-02-21T06:56:44;101650.00;;;10.81
18161;BMP280;9205;52.032;4.314;2024-02-21T06:59:11;101654.22;;;10.85
18161;BMP280;9205;52.032;4.314;2024-02-21T07:01:46;101660.09;;;10.90
18161;BMP280;9205;52.032;4.314;2024-02-21T07:04:13;101644.00;;;10.88
18161;BMP280;9205;52.032;4.314;2024-02-21T07:06:41;101649.13;;;10.85
18161;BMP280;9205;52.032;4.314;2024-02-21T07:09:08;101649.94;;;10.87
18161;BMP280;9205;52.032;4.314;2024-02-21T07:11:35;101643.25;;;10.76
18161;BMP280;9205;52.032;4.314;2024-02-21T07:14:02;101642.38;;;10.81
18161;BMP280;9205;52.032;4.314;2024-02-21T07:16:29;101629.69;;;10.83
18161;BMP280;9205;52.032;4.314;2024-02-21T07:19:02;101632.19;;;10.84
18161;BMP280;9205;52.032;4.314;2024-02-21T07:21:32;101628.91;;;10.75
18161;BMP280;9205;52.032;4.314;2024-02-21T07:23:59;101612.78;;;10.77
18161;BMP280;9205;52.032;4.314;2024-02-21T07:26:26;101615.38;;;10.71
18161;BMP280;9205;52.032;4.314;2024-02-21T07:28:54;101617.09;;;10.66
18161;BMP280;9205;52.032;4.314;2024-02-21T07:31:21;101601.84;;;10.69
18161;BMP280;9205;52.032;4.314;2024-02-21T07:33:48;101606.22;;;10.55
18161;BMP280;9205;52.032;4.314;2024-02-21T07:36:28;101609.66;;;10.50
18161;BMP280;9205;52.032;4.314;2024-02-21T07:38:56;101608.75;;;10.55
18161;BMP280;9205;52.032;4.314;2024-02-21T07:41:23;101601.13;;;10.57
18161;BMP280;9205;52.032;4.314;2024-02-21T07:43:50;101604.44;;;10.62
18161;BMP280;9205;52.032;4.314;2024-02-21T07:46:17;101586.69;;;10.59
18161;BMP280;9205;52.032;4.314;2024-02-21T07:48:45;101572.25;;;10.64
18161;BMP280;9205;52.032;4.314;2024-02-21T07:51:13;101580.78;;;10.57
18161;BMP280;9205;52.032;4.314;2024-02-21T07:53:41;101563.94;;;10.50
18161;BMP280;9205;52.032;4.314;2024-02-21T07:56:10;101569.78;;;10.55
18161;BMP280;9205;52.032;4.314;2024-02-21T07:58:38;101574.06;;;10.51
18161;BMP280;9205;52.032;4.314;2024-02-21T08:01:05;101574.91;;;10.52
18161;BMP280;9205;52.032;4.314;2024-02-21T08:03:32;101574.81;;;10.61
18161;BMP280;9205;52.032;4.314;2024-02-21T08:05:59;101562.06;;;10.65
18161;BMP280;9205;52.032;4.314;2024-02-21T08:08:26;101568.88;;;10.62
18161;BMP280;9205;52.032;4.314;2024-02-21T08:10:55;101554.44;;;10.65
18161;BMP280;9205;52.032;4.314;2024-02-21T08:13:22;101563.78;;;10.62
18161;BMP280;9205;52.032;4.314;2024-02-21T08:15:49;101555.31;;;10.63
18161;BMP280;9205;52.032;4.314;2024-02-21T08:18:16;101537.63;;;10.52
18161;BMP280;9205;52.032;4.314;2024-02-21T08:20:44;101537.72;;;10.46
18161;BMP280;9205;52.032;4.314;2024-02-21T08:23:11;101540.19;;;10.52
18161;BMP280;9205;52.032;4.314;2024-02-21T08:25:38;101531.69;;;10.55
18161;BMP280;9205;52.032;4.314;2024-02-21T08:28:07;101522.41;;;10.51
18161;BMP280;9205;52.032;4.314;2024-02-21T08:30:34;101521.50;;;10.56
18161;BMP280;9205;52.032;4.314;2024-02-21T08:33:02;101517.19;;;10.63
18161;BMP280;9205;52.032;4.314;2024-02-21T08:35:29;101511.28;;;10.62
18161;BMP280;9205;52.032;4.314;2024-02-21T08:37:56;101520.47;;;10.72
18161;BMP280;9205;52.032;4.314;2024-02-21T08:40:24;101514.50;;;10.76
18161;BMP280;9205;52.032;4.314;2024-02-21T08:42:51;101505.31;;;10.65
18161;BMP280;9205;52.032;4.314;2024-02-21T08:45:21;101502.81;;;10.60
18161;BMP280;9205;52.032;4.314;2024-02-21T08:47:48;101497.78;;;10.59
18161;BMP280;9205;52.032;4.314;2024-02-21T08:50:15;101501.16;;;10.56
18161;BMP280;9205;52.032;4.314;2024-02-21T08:52:42;101497.81;;;10.53
18161;BMP280;9205;52.032;4.314;2024-02-21T08:55:10;101484.31;;;10.51
18161;BMP280;9205;52.032;4.314;2024-02-21T08:57:37;101481.69;;;10.60
18161;BMP280;9205;52.032;4.314;2024-02-21T09:00:05;101492.69;;;10.59
18161;BMP280;9205;52.032;4.314;2024-02-21T09:02:40;101483.34;;;10.59
18161;BMP280;9205;52.032;4.314;2024-02-21T09:05:08;101484.13;;;10.64
18161;BMP280;9205;52.032;4.314;2024-02-21T09:07:36;101464.75;;;10.56
18161;BMP280;9205;52.032;4.314;2024-02-21T09:10:04;101463.84;;;10.63
18161;BMP280;9205;52.032;4.314;2024-02-21T09:12:31;101441.03;;;10.60
18161;BMP280;9205;52.032;4.314;2024-02-21T09:14:58;101431.69;;;10.60
18161;BMP280;9205;52.032;4.314;2024-02-21T09:17:25;101432.56;;;10.56
18161;BMP280;9205;52.032;4.314;2024-02-21T09:19:56;101427.41;;;10.64
18161;BMP280;9205;52.032;4.314;2024-02-21T09:22:25;101407.03;;;10.65
18161;BMP280;9205;52.032;4.314;2024-02-21T09:24:52;101406.19;;;10.66
18161;BMP280;9205;52.032;4.314;2024-02-21T09:27:19;101403.59;;;10.71
18161;BMP280;9205;52.032;4.314;2024-02-21T09:29:48;101401.97;;;10.65
18161;BMP280;9205;52.032;4.314;2024-02-21T09:32:15;101392.47;;;10.79
18161;BMP280;9205;52.032;4.314;2024-02-21T09:34:42;101405.97;;;10.84
18161;BMP280;9205;52.032;4.314;2024-02-21T09:37:11;101379.78;;;10.78
18161;BMP280;9205;52.032;4.314;2024-02-21T09:39:38;101380.47;;;10.87
18161;BMP280;9205;52.032;4.314;2024-02-21T09:42:06;101364.31;;;10.92
18161;BMP280;9205;52.032;4.314;2024-02-21T09:44:37;101361.72;;;10.95
18161;BMP280;9205;52.032;4.314;2024-02-21T09:47:10;101355.72;;;11.01
18161;BMP280;9205;52.032;4.314;2024-02-21T09:49:42;101352.31;;;11.00
18161;BMP280;9205;52.032;4.314;2024-02-21T09:52:13;101348.06;;;11.02
18161;BMP280;9205;52.032;4.314;2024-02-21T09:54:42;101354.03;;;11.00
18161;BMP280;9205;52.032;4.314;2024-02-21T09:57:11;101345.59;;;10.98
18161;BMP280;9205;52.032;4.314;2024-02-21T09:59:39;101338.72;;;11.03
18161;BMP280;9205;52.032;4.314;2024-02-21T10:02:07;101320.00;;;11.08
18161;BMP280;9205;52.032;4.314;2024-02-21T10:04:35;101313.25;;;11.06
18161;BMP280;9205;52.032;4.314;2024-02-21T10:07:02;101305.03;;;10.91
18161;BMP280;9205;52.032;4.314;2024-02-21T10:09:31;101305.78;;;10.97
18161;BMP280;9205;52.032;4.314;2024-02-21T10:12:08;101294.72;;;11.01
18161;BMP280;9205;52.032;4.314;2024-02-21T10:14:36;101297.19;;;11.04
18161;BMP280;9205;52.032;4.314;2024-02-21T10:17:04;101287.00;;;11.05
18161;BMP280;9205;52.032;4.314;2024-02-21T10:19:35;101293.63;;;11.14
18161;BMP280;9205;52.032;4.314;2024-02-21T10:22:04;101283.41;;;11.15
18161;BMP280;9205;52.032;4.314;2024-02-21T10:24:35;101299.63;;;11.11
18161;BMP280;9205;52.032;4.314;2024-02-21T10:27:06;101296.22;;;11.12
18161;BMP280;9205;52.032;4.314;2024-02-21T10:29:34;101303.91;;;11.08
18161;BMP280;9205;52.032;4.314;2024-02-21T10:32:09;101297.19;;;11.04
18161;BMP280;9205;52.032;4.314;2024-02-21T10:34:38;101297.25;;;11.01
18161;BMP280;9205;52.032;4.314;2024-02-21T10:37:07;101287.22;;;10.92
18161;BMP280;9205;52.032;4.314;2024-02-21T10:39:38;101288.06;;;10.91
18161;BMP280;9205;52.032;4.314;2024-02-21T10:42:05;101283.75;;;10.96
18161;BMP280;9205;52.032;4.314;2024-02-21T10:44:37;101269.31;;;10.98
18161;BMP280;9205;52.032;4.314;2024-02-21T10:47:08;101269.28;;;10.99
18161;BMP280;9205;52.032;4.314;2024-02-21T10:49:40;101273.53;;;10.99
18161;BMP280;9205;52.032;4.314;2024-02-21T10:52:14;101259.25;;;10.92
18161;BMP280;9205;52.032;4.314;2024-02-21T10:54:51;101268.56;;;10.93
18161;BMP280;9205;52.032;4.314;2024-02-21T10:57:21;101255.94;;;10.89
18161;BMP280;9205;52.032;4.314;2024-02-21T10:59:49;101229.56;;;10.94
18161;BMP280;9205;52.032;4.314;2024-02-21T11:02:17;101217.66;;;10.96
18161;BMP280;9205;52.032;4.314;2024-02-21T11:04:45;101228.50;;;11.07
18161;BMP280;9205;52.032;4.314;2024-02-21T11:07:14;101230.19;;;11.06
18161;BMP280;9205;52.032;4.314;2024-02-21T11:09:53;101226.69;;;11.12
18161;BMP280;9205;52.032;4.314;2024-02-21T11:12:22;101207.97;;;11.17
18161;BMP280;9205;52.032;4.314;2024-02-21T11:14:49;101221.41;;;11.22
18161;BMP280;9205;52.032;4.314;2024-02-21T11:17:17;101200.31;;;11.17
18161;BMP280;9205;52.032;4.314;2024-02-21T11:19:45;101185.00;;;11.22
18161;BMP280;9205;52.032;4.314;2024-02-21T11:22:15;101189.81;;;11.34
18161;BMP280;9205;52.032;4.314;2024-02-21T11:24:44;101184.88;;;11.28
18161;BMP280;9205;52.032;4.314;2024-02-21T11:27:14;101166.16;;;11.32
18161;BMP280;9205;52.032;4.314;2024-02-21T11:29:43;101162.75;;;11.31
18161;BMP280;9205;52.032;4.314;2024-02-21T11:32:11;101157.72;;;11.30
18161;BMP280;9205;52.032;4.314;2024-02-21T11:34:38;101145.56;;;11.44
18161;BMP280;9205;52.032;4.314;2024-02-21T11:37:14;101157.41;;;11.45
18161;BMP280;9205;52.032;4.314;2024-02-21T11:39:42;101124.38;;;11.43
18161;BMP280;9205;52.032;4.314;2024-02-21T11:42:10;101145.41;;;11.53
18161;BMP280;9205;52.032;4.314;2024-02-21T11:44:39;101149.53;;;11.57
18161;BMP280;9205;52.032;4.314;2024-02-21T11:47:09;101131.84;;;11.51
18161;BMP280;9205;52.032;4.314;2024-02-21T11:49:38;101135.34;;;11.45
18161;BMP280;9205;52.032;4.314;2024-02-21T11:52:06;101119.97;;;11.53
18161;BMP280;9205;52.032;4.314;2024-02-21T11:54:34;101123.38;;;11.49
18161;BMP280;9205;52.032;4.314;2024-02-21T11:57:01;101099.34;;;11.65
18161;BMP280;9205;52.032;4.314;2024-02-21T11:59:30;101107.91;;;11.61
18161;BMP280;9205;52.032;4.314;2024-02-21T12:02:00;101089.25;;;11.62
18161;BMP280;9205;52.032;4.314;2024-02-21T12:04:29;101077.56;;;11.52
18161;BMP280;9205;52.032;4.314;2024-02-21T12:06:58;101058.91;;;11.53
18161;BMP280;9205;52.032;4.314;2024-02-21T12:09:26;101069.03;;;11.54
18161;BMP280;9205;52.032;4.314;2024-02-21T12:12:01;101041.22;;;11.45
18161;BMP280;9205;52.032;4.314;2024-02-21T12:14:30;101024.22;;;11.47
18161;BMP280;9205;52.032;4.314;2024-02-21T12:16:59;101009.84;;;11.45
18161;BMP280;9205;52.032;4.314;2024-02-21T12:19:29;100998.69;;;11.52
18161;BMP280;9205;52.032;4.314;2024-02-21T12:21:58;101001.34;;;11.46
18161;BMP280;9205;52.032;4.314;2024-02-21T12:24:27;100987.06;;;11.40
18161;BMP280;9205;52.032;4.314;2024-02-21T12:26:56;100988.63;;;11.46
18161;BMP280;9205;52.032;4.314;2024-02-21T12:29:25;100979.28;;;11.46
18161;BMP280;9205;52.032;4.314;2024-02-21T12:31:52;100979.47;;;11.39
18161;BMP280;9205;52.032;4.314;2024-02-21T12:34:23;100971.94;;;11.34
18161;BMP280;9205;52.032;4.314;2024-02-21T12:36:52;100960.09;;;11.33
18161;BMP280;9205;52.032;4.314;2024-02-21T12:39:19;100963.69;;;11.25
18161;BMP280;9205;52.032;4.314;2024-02-21T12:41:47;100967.88;;;11.26
18161;BMP280;9205;52.032;4.314;2024-02-21T12:44:14;100952.84;;;11.17
18161;BMP280;9205;52.032;4.314;2024-02-21T12:46:43;100952.75;;;11.21
18161;BMP280;9205;52.032;4.314;2024-02-21T12:49:10;100945.13;;;11.20
18161;BMP280;9205;52.032;4.314;2024-02-21T12:51:39;100946.00;;;11.19
18161;BMP280;9205;52.032;4.314;2024-02-21T12:54:07;100942.84;;;11.09
18161;BMP280;9205;52.032;4.314;2024-02-21T12:56:37;100929.22;;;11.12
18161;BMP280;9205;52.032;4.314;2024-02-21T12:59:05;100935.06;;;11.15
18161;BMP280;9205;52.032;4.314;2024-02-21T13:01:34;100925.03;;;11.09
18161;BMP280;9205;52.032;4.314;2024-02-21T13:04:01;100927.41;;;11.17
18161;BMP280;9205;52.032;4.314;2024-02-21T13:06:29;100918.28;;;11.08
18161;BMP280;9205;52.032;4.314;2024-02-21T13:08:57;100905.75;;;11.01
18161;BMP280;9205;52.032;4.314;2024-02-21T13:11:25;100899.56;;;11.12
18161;BMP280;9205;52.032;4.314;2024-02-21T13:13:56;100884.34;;;11.09
18161;BMP280;9205;52.032;4.314;2024-02-21T13:16:24;100879.09;;;11.17
18161;BMP280;9205;52.032;4.314;2024-02-21T13:18:52;100868.19;;;11.13
18161;BMP280;9205;52.032;4.314;2024-02-21T13:21:19;100856.28;;;11.14
18161;BMP280;9205;52.032;4.314;2024-02-21T13:23:47;100853.69;;;11.17
18161;BMP280;9205;52.032;4.314;2024-02-21T13:26:15;100841.84;;;11.16
18161;BMP280;9205;52.032;4.314;2024-02-21T13:28:42;100831.78;;;11.11
18161;BMP280;9205;52.032;4.314;2024-02-21T13:31:10;100827.44;;;11.15
18161;BMP280;9205;52.032;4.314;2024-02-21T13:33:37;100813.13;;;11.11
18161;BMP280;9205;52.032;4.314;2024-02-21T13:36:05;100799.53;;;11.13
18161;BMP280;9205;52.032;4.314;2024-02-21T13:38:33;100784.59;;;11.00
18161;BMP280;9205;52.032;4.314;2024-02-21T13:41:00;100768.38;;;11.04
18161;BMP280;9205;52.032;4.314;2024-02-21T13:43:29;100742.94;;;11.05
18161;BMP280;9205;52.032;4.314;2024-02-21T13:45:58;100730.31;;;11.02
18161;BMP280;9205;52.032;4.314;2024-02-21T13:48:26;100724.25;;;11.06
18161;BMP280;9205;52.032;4.314;2024-02-21T13:50:55;100705.69;;;11.03
18161;BMP280;9205;52.032;4.314;2024-02-21T13:53:22;100703.16;;;11.04
18161;BMP280;9205;52.032;4.314;2024-02-21T13:55:49;100692.97;;;11.04
18161;BMP280;9205;52.032;4.314;2024-02-21T13:58:17;100686.91;;;11.10
18161;BMP280;9205;52.032;4.314;2024-02-21T14:00:45;100665.78;;;11.06
18161;BMP280;9205;52.032;4.314;2024-02-21T14:03:13;100664.53;;;10.91
18161;BMP280;9205;52.032;4.314;2024-02-21T14:05:40;100658.66;;;10.87
18161;BMP280;9205;52.032;4.314;2024-02-21T14:08:07;100638.44;;;10.84
18161;BMP280;9205;52.032;4.314;2024-02-21T14:10:34;100635.03;;;10.85
18161;BMP280;9205;52.032;4.314;2024-02-21T14:13:03;100637.19;;;10.67
18161;BMP280;9205;52.032;4.314;2024-02-21T14:15:30;100631.09;;;10.74